Time;durP1;ratioP1;P1;durP2;ratioP2;P2;SDS_P1;SDS_P2;PMS_P1;PMS_P2;Temp;Humidity;BMP_temperature;BMP_pressure;BME280_temperature;BME280_humidity;BME280_pressure;Samples;Min_cycle;Max_cycle;Signal;HPM_P1;HPM_P2
2023/01/16 00:02:12;;;;;;;3.47;1.30;;;4.90;99.90;;;;;;5118196;28;20205;-91
2023/01/16 00:04:39;;;;;;;5.40;1.30;;;4.90;99.90;;;;;;5117582;28;20228;-92
2023/01/16 00:07:12;;;;;;;4.07;1.30;;;4.90;99.90;;;;;;5122684;28;20246;-91
2023/01/16 00:09:53;;;;;;;4.53;1.30;;;4.90;99.90;;;;;;5125737;28;20584;-93
2023/01/16 00:12:21;;;;;;;1.47;1.27;;;4.90;99.90;;;;;;5127178;28;20205;-91
2023/01/16 00:14:48;;;;;;;5.07;1.33;;;4.90;99.90;;;;;;5117469;28;20205;-91
2023/01/16 00:17:16;;;;;;;1.43;0.90;;;4.80;99.90;;;;;;5117322;28;20207;-94
2023/01/16 00:19:43;;;;;;;3.37;1.10;;;4.80;99.90;;;;;;5098858;28;20208;-88
2023/01/16 00:22:10;;;;;;;5.47;1.50;;;4.80;99.90;;;;;;5117221;28;20211;-91
2023/01/16 00:24:38;;;;;;;4.93;0.83;;;4.80;99.90;;;;;;5117273;28;20230;-90
2023/01/16 00:27:07;;;;;;;2.80;1.10;;;4.80;99.90;;;;;;5117165;28;20239;-90
2023/01/16 00:29:34;;;;;;;3.77;1.23;;;4.80;99.90;;;;;;5116769;28;20285;-89
2023/01/16 00:32:01;;;;;;;6.80;1.50;;;4.80;99.90;;;;;;5116729;28;20227;-89
2023/01/16 00:34:28;;;;;;;4.00;1.33;;;4.80;99.90;;;;;;5119949;28;20224;-90
2023/01/16 00:36:59;;;;;;;2.93;1.17;;;4.90;99.90;;;;;;5120449;28;20259;-91
2023/01/16 00:39:26;;;;;;;1.20;0.80;;;4.80;99.90;;;;;;5119728;28;20203;-90
2023/01/16 00:41:53;;;;;;;3.67;1.10;;;4.70;99.90;;;;;;5121563;28;20207;-90
2023/01/16 00:44:24;;;;;;;4.00;1.40;;;4.70;99.90;;;;;;5125241;28;20307;-91
2023/01/16 00:46:52;;;;;;;2.90;0.90;;;4.70;99.90;;;;;;5124147;28;20253;-90
2023/01/16 00:49:24;;;;;;;1.20;0.97;;;4.80;99.90;;;;;;5124985;28;20268;-91
2023/01/16 00:51:52;;;;;;;5.80;1.30;;;4.70;99.90;;;;;;5127064;28;20209;-90
2023/01/16 00:54:21;;;;;;;3.07;0.93;;;4.70;99.90;;;;;;5126479;28;20231;-90
2023/01/16 00:56:48;;;;;;;3.57;0.97;;;4.70;99.90;;;;;;5127717;28;20275;-92
2023/01/16 00:59:16;;;;;;;2.63;0.90;;;4.70;99.90;;;;;;5126052;28;20205;-91
2023/01/16 01:01:45;;;;;;;2.20;0.80;;;4.60;99.90;;;;;;5126470;28;20275;-89
2023/01/16 01:04:18;;;;;;;3.60;0.80;;;4.70;99.90;;;;;;5126593;28;20735;-89
2023/01/16 01:06:45;;;;;;;3.53;1.00;;;4.70;99.90;;;;;;5125906;28;20224;-89
2023/01/16 01:09:13;;;;;;;5.57;0.90;;;4.70;99.90;;;;;;5126538;28;20208;-90
2023/01/16 01:11:43;;;;;;;1.40;0.63;;;4.70;99.90;;;;;;5125728;28;20264;-93
2023/01/16 01:14:20;;;;;;;3.07;1.07;;;4.70;99.90;;;;;;5127075;28;20224;-89
2023/01/16 01:16:52;;;;;;;2.00;1.10;;;4.80;99.90;;;;;;5126887;28;20208;-89
2023/01/16 01:19:22;;;;;;;5.57;0.83;;;4.90;99.90;;;;;;5125884;28;20214;-91
2023/01/16 01:21:50;;;;;;;3.33;1.00;;;5.00;99.90;;;;;;5125757;28;20222;-92
2023/01/16 01:24:26;;;;;;;3.23;0.87;;;4.90;99.90;;;;;;5126981;28;20295;-90
2023/01/16 01:26:57;;;;;;;5.47;0.97;;;4.90;99.90;;;;;;5127773;28;20231;-91
2023/01/16 01:29:25;;;;;;;2.17;0.80;;;4.90;99.90;;;;;;5127194;28;20236;-90
2023/01/16 01:31:55;;;;;;;3.92;1.23;;;4.90;99.90;;;;;;5126400;28;21076;-91
2023/01/16 01:34:25;;;;;;;2.37;1.03;;;4.90;99.90;;;;;;5125486;28;20224;-90
2023/01/16 01:36:54;;;;;;;2.07;1.17;;;4.90;99.90;;;;;;5126921;28;20269;-91
2023/01/16 01:39:23;;;;;;;2.30;1.20;;;4.90;99.90;;;;;;5127867;28;20284;-92
2023/01/16 01:44:59;;;;;;;2.10;1.27;;;4.90;99.90;;;;;;5126696;28;20300;-92
2023/01/16 01:47:36;;;;;;;4.47;1.60;;;5.00;99.90;;;;;;5128285;28;20232;-90
2023/01/16 01:50:15;;;;;;;3.67;1.70;;;4.90;99.90;;;;;;5128393;28;20246;-92
2023/01/16 01:52:43;;;;;;;7.63;2.10;;;4.90;99.90;;;;;;5128301;28;20243;-91
2023/01/16 01:55:13;;;;;;;5.47;2.20;;;5.00;99.90;;;;;;5127965;28;20231;-91
2023/01/16 01:57:56;;;;;;;8.47;2.27;;;5.00;99.90;;;;;;5128297;28;20200;-93
2023/01/16 02:00:29;;;;;;;4.60;1.90;;;5.10;99.90;;;;;;5127998;28;20204;-92
2023/01/16 02:03:04;;;;;;;6.23;2.23;;;5.10;99.90;;;;;;5128051;28;20240;-91
2023/01/16 02:05:45;;;;;;;4.57;2.30;;;5.30;99.90;;;;;;5128214;28;20219;-92
2023/01/16 02:08:24;;;;;;;6.83;2.20;;;5.20;99.90;;;;;;5128559;28;20227;-89
2023/01/16 02:11:02;;;;;;;4.90;1.90;;;5.20;99.90;;;;;;5128192;28;20249;-92
2023/01/16 02:13:32;;;;;;;7.73;2.17;;;5.20;99.90;;;;;;5128005;28;20697;-90
2023/01/16 02:22:10;;;;;;;5.77;2.03;;;5.30;99.90;;;;;;5128813;28;20244;-91
2023/01/16 02:25:06;;;;;;;5.90;1.77;;;5.40;99.90;;;;;;5129891;28;20262;-90
2023/01/16 02:28:01;;;;;;;7.20;2.27;;;5.50;99.90;;;;;;5045968;28;20254;-91
2023/01/16 02:31:03;;;;;;;5.83;1.80;;;5.50;99.90;;;;;;5126227;28;20205;-91
2023/01/16 02:33:50;;;;;;;3.87;1.70;;;5.50;99.90;;;;;;5124037;28;20342;-91
2023/01/16 02:36:28;;;;;;;7.95;2.42;;;5.50;99.90;;;;;;5124337;28;20512;-91
2023/01/16 02:39:06;;;;;;;14.07;2.17;;;5.60;99.90;;;;;;5122341;28;20204;-91
2023/01/16 02:41:50;;;;;;;8.93;2.60;;;5.70;99.90;;;;;;5124895;28;20231;-91
2023/01/16 02:44:25;;;;;;;6.23;1.90;;;5.70;99.90;;;;;;5123975;28;20635;-92
2023/01/16 02:47:13;;;;;;;5.53;1.63;;;5.80;99.90;;;;;;5124451;28;20204;-90
2023/01/16 02:52:34;;;;;;;4.50;1.90;;;5.80;99.90;;;;;;5127313;28;20566;-92
2023/01/16 02:55:06;;;;;;;9.07;1.67;;;5.90;99.90;;;;;;5127079;28;20231;-90
2023/01/16 02:57:39;;;;;;;5.33;1.50;;;5.90;99.90;;;;;;5126343;28;20362;-93
2023/01/16 03:00:33;;;;;;;8.73;1.70;;;6.00;99.90;;;;;;5125849;28;20234;-91
2023/01/16 03:03:02;;;;;;;7.70;1.50;;;6.00;99.90;;;;;;5125827;28;20244;-90
2023/01/16 03:05:45;;;;;;;6.43;1.60;;;5.90;99.90;;;;;;5125227;28;20477;-89
2023/01/16 03:08:35;;;;;;;4.77;2.20;;;6.00;99.90;;;;;;5126986;28;20218;-91
2023/01/16 03:11:24;;;;;;;6.63;1.40;;;6.00;99.90;;;;;;5125649;28;20205;-93
2023/01/16 03:14:21;;;;;;;5.07;1.30;;;6.10;99.90;;;;;;5123294;28;20251;-89
2023/01/16 03:17:25;;;;;;;4.37;1.40;;;6.00;99.90;;;;;;5121649;28;20208;-92
2023/01/16 03:20:10;;;;;;;5.17;1.53;;;6.10;99.90;;;;;;5121304;28;20227;-92
2023/01/16 03:22:46;;;;;;;4.30;1.50;;;6.00;99.90;;;;;;5122562;28;20235;-90
2023/01/16 03:25:27;;;;;;;3.97;1.57;;;6.00;99.90;;;;;;5122724;28;20227;-94
2023/01/16 03:28:04;;;;;;;6.83;1.40;;;6.10;99.90;;;;;;5122808;28;20232;-91
2023/01/16 03:30:38;;;;;;;8.23;2.03;;;6.10;99.90;;;;;;5121733;28;20267;-90
2023/01/16 03:33:10;;;;;;;4.03;1.30;;;6.10;99.90;;;;;;5122621;28;20227;-91
2023/01/16 03:35:44;;;;;;;7.37;2.00;;;6.10;99.90;;;;;;5121449;28;20269;-92
2023/01/16 03:38:23;;;;;;;6.77;1.50;;;6.00;99.90;;;;;;5122941;28;20285;-90
2023/01/16 03:41:08;;;;;;;3.73;1.50;;;6.00;99.90;;;;;;5125775;28;20208;-91
2023/01/16 03:43:39;;;;;;;9.97;1.53;;;6.00;99.90;;;;;;5125640;28;20253;-92
2023/01/16 03:46:15;;;;;;;11.00;1.50;;;5.90;99.90;;;;;;5126381;28;20287;-91
2023/01/16 03:48:48;;;;;;;10.53;1.97;;;6.00;99.90;;;;;;5126133;28;20255;-92
2023/01/16 03:51:20;;;;;;;9.80;1.77;;;6.10;99.90;;;;;;5120487;28;20566;-92
2023/01/16 03:54:15;;;;;;;7.17;1.27;;;6.00;99.90;;;;;;5128761;28;20228;-90
2023/01/16 03:59:53;;;;;;;4.90;1.60;;;6.10;99.90;;;;;;5121795;28;20208;-90
2023/01/16 04:02:34;;;;;;;5.50;1.60;;;6.00;99.90;;;;;;5127613;28;20204;-92
2023/01/16 04:05:10;;;;;;;8.05;1.80;;;6.00;99.90;;;;;;5125879;28;20441;-90
2023/01/16 04:07:44;;;;;;;4.50;1.63;;;6.00;99.90;;;;;;5126257;28;20209;-90
2023/01/16 04:10:22;;;;;;;4.47;1.27;;;6.00;99.90;;;;;;5125953;28;20335;-92
2023/01/16 04:12:56;;;;;;;7.47;1.43;;;6.00;99.90;;;;;;5124999;28;20230;-91
2023/01/16 04:15:26;;;;;;;7.90;1.70;;;6.00;99.90;;;;;;5132023;28;20196;-90
2023/01/16 04:17:53;;;;;;;5.73;1.23;;;6.00;99.90;;;;;;5136370;28;20224;-92
2023/01/16 04:20:27;;;;;;;5.87;1.50;;;5.90;99.90;;;;;;5137773;28;20201;-90
2023/01/16 04:22:54;;;;;;;3.87;1.13;;;6.00;99.90;;;;;;5119198;28;20221;-92
2023/01/16 04:25:26;;;;;;;7.17;1.67;;;6.00;99.90;;;;;;5129622;28;20204;-90
2023/01/16 04:30:46;;;;;;;8.00;1.50;;;5.90;99.90;;;;;;5135310;28;20188;-92
2023/01/16 04:33:14;;;;;;;7.70;1.77;;;5.90;99.90;;;;;;5135496;28;20424;-89
2023/01/16 04:35:45;;;;;;;7.77;1.20;;;5.90;99.90;;;;;;5128661;28;20261;-90
2023/01/16 04:38:14;;;;;;;2.20;1.17;;;5.90;99.90;;;;;;5126883;28;20208;-92
2023/01/16 04:40:44;;;;;;;4.43;1.20;;;6.00;99.90;;;;;;5128114;28;20196;-91
2023/01/16 04:43:14;;;;;;;5.53;1.47;;;6.00;99.90;;;;;;5126616;28;20223;-91
2023/01/16 04:45:42;;;;;;;9.10;1.30;;;6.00;99.90;;;;;;5125527;28;20292;-91
2023/01/16 04:48:12;;;;;;;10.33;1.73;;;6.00;99.90;;;;;;5125091;28;20262;-91
2023/01/16 04:50:39;;;;;;;4.97;1.30;;;6.00;99.90;;;;;;5124378;28;20772;-90
2023/01/16 04:53:08;;;;;;;6.03;1.30;;;5.90;99.90;;;;;;5125479;28;20244;-94
2023/01/16 04:55:36;;;;;;;5.20;1.50;;;6.00;99.90;;;;;;5125385;28;20226;-90
2023/01/16 04:58:08;;;;;;;6.63;1.27;;;6.00;99.90;;;;;;5125084;28;20264;-91
2023/01/16 05:00:41;;;;;;;6.93;1.50;;;5.90;99.90;;;;;;5124219;28;20208;-91
2023/01/16 05:03:08;;;;;;;4.23;1.13;;;5.90;99.90;;;;;;5124487;28;20224;-92
2023/01/16 05:05:35;;;;;;;5.07;1.50;;;5.90;99.90;;;;;;5124263;28;20695;-91
2023/01/16 05:10:45;;;;;;;6.60;1.70;;;5.90;99.90;;;;;;5126776;28;20196;-90
2023/01/16 05:13:13;;;;;;;3.17;1.30;;;5.90;99.90;;;;;;5134900;28;20224;-92
2023/01/16 05:15:52;;;;;;;5.27;1.20;;;5.80;99.90;;;;;;5132170;28;20199;-90
2023/01/16 05:18:21;;;;;;;5.83;1.37;;;5.80;99.90;;;;;;5115985;28;20575;-92
2023/01/16 05:20:49;;;;;;;2.43;1.43;;;5.80;99.90;;;;;;5124692;28;20204;-91
2023/01/16 05:23:16;;;;;;;4.87;1.23;;;5.80;99.90;;;;;;5123955;28;20235;-90
2023/01/16 05:25:44;;;;;;;6.80;1.20;;;5.80;99.90;;;;;;5123345;28;20307;-95
2023/01/16 05:28:14;;;;;;;6.83;0.90;;;5.80;99.90;;;;;;5122105;28;20317;-92
2023/01/16 05:30:45;;;;;;;7.03;1.03;;;5.80;99.90;;;;;;5118404;28;20652;-92
2023/01/16 05:33:13;;;;;;;5.30;1.42;;;5.80;99.90;;;;;;5120719;28;20435;-89
2023/01/16 05:35:40;;;;;;;4.63;0.97;;;5.90;99.90;;;;;;5120868;28;20196;-91
2023/01/16 05:38:07;;;;;;;5.10;0.80;;;5.90;99.90;;;;;;5120145;28;20268;-95
2023/01/16 05:40:35;;;;;;;3.93;0.90;;;5.80;99.90;;;;;;5119083;28;20220;-90
2023/01/16 05:43:02;;;;;;;2.33;0.70;;;5.80;99.90;;;;;;5120485;28;20227;-94
2023/01/16 05:45:30;;;;;;;4.37;1.20;;;5.70;99.90;;;;;;5105986;28;20203;-88
2023/01/16 05:47:58;;;;;;;1.20;0.70;;;5.70;99.90;;;;;;5118840;28;20287;-91
2023/01/16 05:50:25;;;;;;;2.37;0.87;;;5.60;99.90;;;;;;5112902;28;20745;-90
2023/01/16 05:52:54;;;;;;;5.60;0.70;;;5.70;99.90;;;;;;5110501;28;20251;-91
2023/01/16 05:55:21;;;;;;;1.40;0.83;;;5.60;99.90;;;;;;5118171;28;20235;-91
2023/01/16 06:01:22;;;;;;;1.90;0.87;;;5.60;99.90;;;;;;5121482;28;20200;-90
2023/01/16 06:03:50;;;;;;;3.03;0.83;;;5.70;99.90;;;;;;5122207;28;20247;-93
2023/01/16 06:06:18;;;;;;;3.93;0.83;;;5.60;99.90;;;;;;5118319;28;20657;-92
2023/01/16 06:08:46;;;;;;;0.60;0.47;;;5.60;99.90;;;;;;5119731;28;20234;-93
2023/01/16 06:11:13;;;;;;;0.67;0.40;;;5.50;99.90;;;;;;5117622;28;20197;-93
2023/01/16 06:13:40;;;;;;;2.30;0.50;;;5.60;99.90;;;;;;5119533;28;20315;-90
2023/01/16 06:16:08;;;;;;;3.23;0.60;;;5.60;99.90;;;;;;5120760;28;20203;-90
2023/01/16 06:18:37;;;;;;;2.80;0.63;;;5.50;99.90;;;;;;5118014;28;20748;-92
2023/01/16 06:21:06;;;;;;;2.77;0.60;;;5.50;99.90;;;;;;5117961;28;20254;-91
2023/01/16 06:23:33;;;;;;;1.13;0.53;;;5.50;99.90;;;;;;5117371;28;20684;-93
2023/01/16 06:26:05;;;;;;;2.00;0.80;;;5.50;99.90;;;;;;5116189;28;20662;-91
2023/01/16 06:28:32;;;;;;;0.30;0.30;;;5.40;99.90;;;;;;5117162;28;20221;-90
2023/01/16 06:30:59;;;;;;;2.17;0.60;;;5.40;99.90;;;;;;5117123;28;20667;-89
2023/01/16 06:33:27;;;;;;;1.43;0.30;;;5.40;99.90;;;;;;5118520;28;20307;-91
2023/01/16 06:35:57;;;;;;;2.70;0.50;;;5.50;99.90;;;;;;5117730;28;20205;-93
2023/01/16 06:38:24;;;;;;;0.50;0.40;;;5.40;99.90;;;;;;5117894;28;20204;-90
2023/01/16 06:40:55;;;;;;;0.90;0.30;;;5.40;99.90;;;;;;5118111;28;20288;-92
2023/01/16 06:43:23;;;;;;;0.30;0.20;;;5.40;99.90;;;;;;5118923;28;20220;-92
2023/01/16 06:45:50;;;;;;;0.60;0.40;;;5.40;99.90;;;;;;5118443;28;20210;-92
2023/01/16 06:48:17;;;;;;;0.57;0.33;;;5.40;99.90;;;;;;5100975;28;20211;-91
2023/01/16 06:50:44;;;;;;;0.57;0.40;;;5.40;99.90;;;;;;5100913;28;20234;-92
2023/01/16 06:53:16;;;;;;;0.30;0.30;;;5.40;99.90;;;;;;5118511;28;20309;-89
2023/01/16 06:55:45;;;;;;;1.00;0.30;;;5.30;99.90;;;;;;5118570;28;20244;-90
2023/01/16 06:58:13;;;;;;;1.13;0.47;;;5.30;99.90;;;;;;5119310;28;20641;-91
2023/01/16 07:00:42;;;;;;;0.83;0.40;;;5.20;99.90;;;;;;5118281;28;20439;-90
2023/01/16 07:03:12;;;;;;;0.60;0.40;;;5.20;99.90;;;;;;5118524;28;20241;-93
2023/01/16 07:05:39;;;;;;;0.30;0.30;;;5.20;99.90;;;;;;5117991;28;20224;-88
2023/01/16 07:08:07;;;;;;;0.47;0.33;;;5.20;99.90;;;;;;5118576;28;20196;-91
2023/01/16 07:10:36;;;;;;;0.67;0.30;;;5.20;99.90;;;;;;5118986;28;20307;-92
2023/01/16 07:13:03;;;;;;;0.20;0.20;;;5.10;99.90;;;;;;5119984;28;20220;-91
2023/01/16 07:24:02;;;;;;;1.63;0.40;;;5.20;99.90;;;;;;5056150;28;20352;-92
2023/01/16 07:26:32;;;;;;;1.30;0.40;;;5.20;99.90;;;;;;5104734;28;20211;-90
2023/01/16 07:29:02;;;;;;;0.30;0.30;;;5.20;99.90;;;;;;5117912;28;20577;-90
2023/01/16 07:31:30;;;;;;;0.57;0.20;;;5.20;99.90;;;;;;5117935;28;20204;-92
2023/01/16 07:33:56;;;;;;;1.20;0.30;;;5.30;99.90;;;;;;5117107;28;20216;-91
2023/01/16 07:36:23;;;;;;;0.30;0.30;;;5.30;99.90;;;;;;5116772;28;20208;-93
2023/01/16 07:38:50;;;;;;;0.33;0.23;;;5.30;99.90;;;;;;5116218;28;20303;-91
2023/01/16 07:41:18;;;;;;;0.20;0.20;;;5.30;99.90;;;;;;5117548;28;20200;-92
2023/01/16 07:43:47;;;;;;;0.37;0.23;;;5.30;99.90;;;;;;5116307;28;20224;-93
2023/01/16 07:46:14;;;;;;;0.37;0.30;;;5.40;99.90;;;;;;5117579;28;20254;-90
2023/01/16 07:48:41;;;;;;;0.97;0.30;;;5.40;99.90;;;;;;5117454;28;20212;-90
2023/01/16 07:51:09;;;;;;;0.33;0.33;;;5.40;99.90;;;;;;5117463;28;20270;-91
2023/01/16 07:53:36;;;;;;;1.83;0.30;;;5.50;99.90;;;;;;5122600;28;20224;-92
2023/01/16 07:56:08;;;;;;;1.30;0.30;;;5.40;99.90;;;;;;5125186;28;20256;-90
2023/01/16 07:58:49;;;;;;;0.30;0.30;;;5.50;99.90;;;;;;5131887;28;20198;-89
2023/01/16 08:04:22;;;;;;;0.33;0.33;;;5.50;99.90;;;;;;5124175;28;20212;-92
2023/01/16 08:06:56;;;;;;;0.70;0.27;;;5.50;99.90;;;;;;5129334;28;20226;-91
2023/01/16 08:09:50;;;;;;;1.20;0.40;;;5.60;99.90;;;;;;5129006;28;20235;-90
2023/01/16 08:12:21;;;;;;;0.67;0.43;;;5.60;99.90;;;;;;5126085;28;20201;-91
2023/01/16 08:14:53;;;;;;;0.30;0.30;;;5.70;99.90;;;;;;5121752;28;20205;-91
2023/01/16 08:17:25;;;;;;;0.60;0.40;;;5.60;99.90;;;;;;5120839;28;20200;-89
2023/01/16 08:19:53;;;;;;;0.63;0.40;;;5.70;99.90;;;;;;5121670;28;20200;-92
2023/01/16 08:22:23;;;;;;;2.40;0.40;;;5.70;99.90;;;;;;5120860;28;20227;-90
2023/01/16 08:24:53;;;;;;;0.87;0.40;;;5.70;99.90;;;;;;5127021;28;20212;-92
2023/01/16 08:27:22;;;;;;;1.33;0.87;;;5.70;99.90;;;;;;5123531;28;20253;-90
2023/01/16 08:29:53;;;;;;;0.50;0.50;;;5.80;99.90;;;;;;5122586;28;20547;-91
2023/01/16 08:32:28;;;;;;;1.40;0.40;;;5.80;99.90;;;;;;5123851;28;20222;-90
2023/01/16 08:35:04;;;;;;;3.73;0.60;;;5.80;99.90;;;;;;5121957;28;20223;-90
2023/01/16 08:37:37;;;;;;;0.70;0.70;;;5.80;99.90;;;;;;5122201;28;20200;-92
2023/01/16 08:40:10;;;;;;;1.83;0.33;;;5.90;99.90;;;;;;5123931;28;20265;-90
2023/01/16 08:51:25;;;;;;;1.43;0.60;;;6.00;99.90;;;;;;5119952;28;20212;-92
2023/01/16 08:53:56;;;;;;;1.27;0.40;;;6.00;99.90;;;;;;5119525;28;20235;-92
2023/01/16 08:56:28;;;;;;;1.20;0.70;;;6.00;99.90;;;;;;5122040;28;20199;-89
2023/01/16 08:59:00;;;;;;;0.50;0.50;;;6.10;99.90;;;;;;5121402;28;20205;-91
2023/01/16 09:01:28;;;;;;;1.90;0.53;;;6.10;99.90;;;;;;5125666;28;20254;-91
2023/01/16 09:04:01;;;;;;;1.87;0.70;;;6.20;99.90;;;;;;5121112;28;20299;-93
2023/01/16 09:06:37;;;;;;;0.73;0.60;;;6.30;99.90;;;;;;5123412;28;20287;-91
2023/01/16 09:09:08;;;;;;;0.40;0.40;;;6.30;99.90;;;;;;5121682;28;20320;-89
2023/01/16 09:14:28;;;;;;;0.50;0.50;;;6.40;99.90;;;;;;5119302;28;20213;-89
2023/01/16 09:16:58;;;;;;;0.97;0.53;;;6.20;99.90;;;;;;5121235;28;20210;-90
2023/01/16 09:19:39;;;;;;;1.10;0.60;;;6.20;99.90;;;;;;5119837;28;20425;-90
2023/01/16 09:22:07;;;;;;;0.57;0.40;;;6.30;99.90;;;;;;5123012;28;20200;-89
2023/01/16 09:24:47;;;;;;;1.47;0.47;;;6.10;99.90;;;;;;5122277;28;20239;-89
2023/01/16 09:27:21;;;;;;;0.50;0.50;;;6.00;99.90;;;;;;5114937;28;20291;-92
2023/01/16 09:30:09;;;;;;;0.40;0.40;;;6.00;99.90;;;;;;5121446;28;20228;-90
2023/01/16 09:32:40;;;;;;;0.80;0.30;;;6.00;99.90;;;;;;5125772;28;20234;-93
2023/01/16 09:35:14;;;;;;;0.30;0.30;;;6.00;99.90;;;;;;5126945;28;20208;-93
2023/01/16 09:37:47;;;;;;;0.67;0.40;;;5.90;99.90;;;;;;5127820;28;20200;-90
2023/01/16 09:40:20;;;;;;;0.43;0.43;;;5.90;99.90;;;;;;5089704;28;20197;-90
2023/01/16 09:45:54;;;;;;;0.50;0.50;;;5.90;99.90;;;;;;5105259;28;20188;-93
2023/01/16 09:48:27;;;;;;;0.67;0.60;;;5.90;99.90;;;;;;5121560;28;20219;-93
2023/01/16 09:51:00;;;;;;;0.40;0.40;;;5.90;99.90;;;;;;5118512;28;20228;-90
2023/01/16 09:59:23;;;;;;;0.70;0.70;;;6.10;99.90;;;;;;5114395;28;20207;-91
2023/01/16 10:01:56;;;;;;;0.50;0.50;;;6.10;99.90;;;;;;5116373;28;20269;-92
2023/01/16 10:04:25;;;;;;;0.90;0.50;;;6.20;99.90;;;;;;5115299;28;20228;-91
2023/01/16 10:07:18;;;;;;;0.75;0.75;;;6.20;99.90;;;;;;5115896;28;20439;-89
2023/01/16 10:09:55;;;;;;;1.20;0.53;;;6.30;99.90;;;;;;5115345;28;20221;-90
2023/01/16 10:12:26;;;;;;;1.33;0.63;;;6.40;99.90;;;;;;5115388;28;20204;-92
2023/01/16 10:15:04;;;;;;;0.97;0.77;;;6.30;99.90;;;;;;5115990;28;20291;-91
2023/01/16 10:17:41;;;;;;;1.30;1.03;;;6.20;99.90;;;;;;5097738;28;20231;-93
2023/01/16 10:20:36;;;;;;;1.07;0.70;;;6.20;99.90;;;;;;5116211;28;20204;-89
2023/01/16 10:23:14;;;;;;;0.70;0.70;;;6.10;99.90;;;;;;5114623;28;20957;-91
2023/01/16 10:25:47;;;;;;;1.07;0.50;;;6.20;99.90;;;;;;5116693;28;20196;-89
2023/01/16 10:28:32;;;;;;;0.90;0.77;;;6.30;99.90;;;;;;5115849;28;20217;-91
2023/01/16 10:31:10;;;;;;;0.83;0.53;;;6.20;99.90;;;;;;5116914;28;20742;-90
2023/01/16 10:33:46;;;;;;;0.53;0.50;;;6.20;99.90;;;;;;5112301;28;20233;-91
2023/01/16 10:36:17;;;;;;;0.50;0.50;;;6.20;99.90;;;;;;5119526;28;20204;-89
2023/01/16 10:38:54;;;;;;;0.77;0.50;;;6.20;99.90;;;;;;5119494;28;20288;-93
2023/01/16 10:50:22;;;;;;;0.53;0.40;;;6.20;99.90;;;;;;5116723;28;20230;-92
2023/01/16 10:52:56;;;;;;;0.83;0.40;;;6.10;99.90;;;;;;5115756;28;20211;-90
2023/01/16 10:55:25;;;;;;;0.30;0.30;;;5.90;99.90;;;;;;5097222;28;20290;-90
2023/01/16 10:57:54;;;;;;;1.37;0.60;;;5.90;99.90;;;;;;5114518;28;20199;-91
2023/01/16 11:00:29;;;;;;;0.40;0.40;;;5.90;99.90;;;;;;5115244;28;20228;-90
2023/01/16 11:03:02;;;;;;;1.27;0.50;;;5.80;99.90;;;;;;5119487;28;20227;-92
2023/01/16 11:05:31;;;;;;;0.63;0.63;;;5.90;99.90;;;;;;5130498;28;20193;-91
2023/01/16 11:08:18;;;;;;;0.63;0.63;;;5.90;99.90;;;;;;5127756;28;20189;-92
2023/01/16 11:18:27;;;;;;;0.93;0.70;;;6.00;99.90;;;;;;5093459;28;20726;-89
2023/01/16 11:19:42;;;;;;;1.30;1.03;;;6.00;99.90;;;;;;5111248;28;20187;-92
2023/01/16 11:22:23;;;;;;;1.33;0.83;;;6.00;99.90;;;;;;5112994;28;20238;-92
2023/01/16 11:24:53;;;;;;;1.83;0.77;;;6.10;99.90;;;;;;5119318;28;20208;-91
2023/01/16 11:27:26;;;;;;;3.30;1.20;;;6.20;99.90;;;;;;5118044;28;20219;-93
2023/01/16 11:29:55;;;;;;;0.80;0.73;;;6.40;99.90;;;;;;5117971;28;20312;-90
2023/01/16 11:32:24;;;;;;;1.03;0.70;;;6.30;99.90;;;;;;5117008;28;20219;-89
2023/01/16 11:34:57;;;;;;;2.53;0.90;;;6.50;99.90;;;;;;5115873;28;20204;-90
2023/01/16 11:37:28;;;;;;;0.97;0.60;;;6.40;99.90;;;;;;5116799;28;20208;-91
2023/01/16 11:40:05;;;;;;;0.67;0.50;;;6.40;99.90;;;;;;5119015;28;20245;-91
2023/01/16 11:46:07;;;;;;;2.27;0.90;;;6.50;99.90;;;;;;5119148;28;20203;-90
2023/01/16 11:48:41;;;;;;;0.60;0.60;;;6.70;99.90;;;;;;5123020;28;20230;-91
2023/01/16 11:51:15;;;;;;;0.50;0.50;;;6.90;99.90;;;;;;5104492;28;20691;-91
2023/01/16 11:53:45;;;;;;;1.20;0.70;;;7.00;99.90;;;;;;5114891;28;20248;-92
2023/01/16 11:56:34;;;;;;;0.97;0.60;;;7.10;99.90;;;;;;5110704;28;20212;-92
2023/01/16 11:59:16;;;;;;;2.27;0.57;;;7.10;99.90;;;;;;5105325;28;20287;-91
2023/01/16 12:05:53;;;;;;;0.53;0.37;;;6.90;99.90;;;;;;5090018;28;20195;-90
2023/01/16 12:07:40;;;;;;;1.53;0.50;;;6.80;99.90;;;;;;5095835;28;20193;-91
2023/01/16 12:10:25;;;;;;;0.77;0.77;;;6.70;99.90;;;;;;5106834;28;20230;-93
2023/01/16 12:16:01;;;;;;;1.63;0.70;;;6.90;99.90;;;;;;5101726;28;20227;-90
2023/01/16 12:18:40;;;;;;;0.80;0.80;;;6.80;99.90;;;;;;5114028;28;20203;-91
2023/01/16 12:21:23;;;;;;;0.87;0.60;;;6.90;99.90;;;;;;5114653;28;20717;-93
2023/01/16 12:24:11;;;;;;;2.27;0.50;;;6.90;99.90;;;;;;5101656;28;20223;-91
2023/01/16 12:26:48;;;;;;;0.65;0.65;;;7.00;99.90;;;;;;5113947;28;20504;-92
2023/01/16 12:29:31;;;;;;;1.10;0.90;;;6.90;99.90;;;;;;5114193;28;20215;-91
2023/01/16 12:32:23;;;;;;;2.67;0.70;;;6.90;99.90;;;;;;5113770;28;20220;-95
2023/01/16 12:35:04;;;;;;;2.23;0.93;;;7.00;99.90;;;;;;5104277;28;20261;-91
2023/01/16 12:37:58;;;;;;;2.07;0.80;;;7.10;99.90;;;;;;5113659;28;20612;-93
2023/01/16 12:40:36;;;;;;;0.80;0.70;;;7.10;99.90;;;;;;5118728;28;20219;-94
2023/01/16 12:43:19;;;;;;;0.67;0.67;;;7.10;99.90;;;;;;5119848;28;20703;-93
2023/01/16 12:45:50;;;;;;;1.07;0.57;;;7.10;99.90;;;;;;5110119;28;20675;-92
2023/01/16 12:48:32;;;;;;;1.40;0.77;;;7.00;99.90;;;;;;5110602;28;20192;-90
2023/01/16 12:51:13;;;;;;;3.63;1.10;;;7.10;99.90;;;;;;5133063;28;20228;-88
2023/01/16 12:54:17;;;;;;;0.67;0.67;;;7.10;99.90;;;;;;5133504;28;20233;-91
2023/01/16 12:56:55;;;;;;;1.23;0.90;;;7.20;99.90;;;;;;5123504;28;20242;-91
2023/01/16 12:59:29;;;;;;;1.23;0.90;;;7.30;99.90;;;;;;5122809;28;20216;-92
2023/01/16 13:02:05;;;;;;;1.40;0.83;;;7.40;99.90;;;;;;5126585;28;20231;-93
2023/01/16 13:04:40;;;;;;;1.20;0.73;;;7.60;99.90;;;;;;5124296;28;20237;-91
2023/01/16 13:07:12;;;;;;;0.73;0.70;;;7.60;99.90;;;;;;5140729;28;20176;-91
2023/01/16 13:09:47;;;;;;;0.70;0.70;;;7.50;99.90;;;;;;5101110;28;20303;-94
2023/01/16 13:15:09;;;;;;;1.27;0.87;;;7.70;99.90;;;;;;5118142;28;20220;-92
2023/01/16 13:17:44;;;;;;;1.97;1.10;;;7.80;99.90;;;;;;5118015;28;20283;-93
2023/01/16 13:20:16;;;;;;;1.43;0.97;;;7.70;99.90;;;;;;5118086;28;20222;-96
2023/01/16 13:22:48;;;;;;;0.70;0.70;;;7.70;99.90;;;;;;5118128;28;20212;-93
2023/01/16 13:25:21;;;;;;;2.13;0.70;;;7.70;99.90;;;;;;5117399;28;20239;-93
2023/01/16 13:27:55;;;;;;;1.83;0.90;;;7.70;99.90;;;;;;5104376;28;20208;-96
2023/01/16 13:30:22;;;;;;;1.53;1.17;;;7.70;99.90;;;;;;5117515;28;20680;-94
2023/01/16 13:32:55;;;;;;;1.50;0.90;;;7.80;99.90;;;;;;5117401;28;20743;-93
2023/01/16 13:35:29;;;;;;;1.43;1.00;;;7.80;99.90;;;;;;5110940;28;20256;-90
2023/01/16 13:38:22;;;;;;;2.17;1.20;;;7.80;99.90;;;;;;5109450;28;20204;-93
2023/01/16 13:41:15;;;;;;;1.73;1.00;;;7.70;99.90;;;;;;5117133;28;20208;-93
2023/01/16 13:46:33;;;;;;;2.00;1.30;;;7.30;99.90;;;;;;5118313;28;20628;-91
2023/01/16 13:49:03;;;;;;;2.30;1.23;;;7.10;99.90;;;;;;5113057;28;20673;-91
2023/01/16 13:51:42;;;;;;;1.73;1.30;;;7.00;99.90;;;;;;5107820;28;20259;-92
2023/01/16 13:54:15;;;;;;;2.20;1.40;;;6.80;99.90;;;;;;5117348;28;20261;-93
2023/01/16 13:56:42;;;;;;;1.73;1.17;;;6.90;99.90;;;;;;5118627;28;20205;-93
2023/01/16 13:59:26;;;;;;;1.80;1.30;;;6.70;99.90;;;;;;5119923;28;20204;-94
2023/01/16 14:01:57;;;;;;;1.73;1.10;;;6.60;99.90;;;;;;5105116;28;20217;-95
2023/01/16 14:04:33;;;;;;;1.17;1.07;;;6.40;99.90;;;;;;5119525;28;20239;-92
2023/01/16 14:10:24;;;;;;;1.17;0.73;;;6.30;99.90;;;;;;5231710;22;20269;-78
2023/01/16 14:13:15;;;;;;;1.03;0.93;;;6.10;99.90;;;;;;5148227;27;21010;-80
2023/01/16 14:18:59;;;;;;;1.47;1.00;;;6.20;99.90;;;;;;5150324;27;20187;-78
2023/01/16 14:25:22;;;;;;;1.42;1.33;;;6.10;99.90;;;;;;5141019;27;20883;-79
2023/01/16 14:27:58;;;;;;;2.03;1.00;;;6.10;99.90;;;;;;5135484;27;20203;-79
2023/01/16 14:30:53;;;;;;;1.30;1.20;;;6.20;99.90;;;;;;5139401;27;20196;-78
2023/01/16 14:33:47;;;;;;;1.23;1.10;;;6.20;99.90;;;;;;5154726;27;20215;-79
2023/01/16 14:36:17;;;;;;;1.40;1.30;;;6.20;99.90;;;;;;5132992;27;20188;-79
2023/01/16 14:38:47;;;;;;;1.93;1.67;;;6.20;99.90;;;;;;5142520;27;20196;-79
2023/01/16 14:56:30;;;;;;;1.90;1.80;;;6.00;99.90;;;;;;5144774;27;20202;-78
2023/01/16 14:59:04;;;;;;;1.30;1.30;;;5.70;99.90;;;;;;5131926;28;20200;-77
2023/01/16 15:04:31;;;;;;;0.43;0.43;;;5.50;99.90;;;;;;5137634;27;20183;-77
2023/01/16 15:07:28;;;;;;;0.77;0.77;;;5.20;99.90;;;;;;5135162;28;20249;-78
2023/01/16 15:13:06;;;;;;;0.57;0.40;;;4.90;99.90;;;;;;5135899;27;20180;-77
2023/01/16 15:15:34;;;;;;;0.67;0.67;;;4.70;99.90;;;;;;5134672;22;20567;-76
2023/01/16 15:23:59;;;;;;;0.57;0.40;;;4.60;99.90;;;;;;5116599;28;20192;-78
2023/01/16 15:26:40;;;;;;;0.60;0.60;;;4.60;99.90;;;;;;5115622;28;20418;-78
2023/01/16 15:29:33;;;;;;;0.60;0.60;;;4.60;99.90;;;;;;5115577;28;20517;-78
2023/01/16 15:32:05;;;;;;;1.53;0.50;;;4.60;99.90;;;;;;5091578;28;20225;-78
2023/01/16 15:34:35;;;;;;;0.33;0.33;;;4.70;99.90;;;;;;5111467;28;21029;-78
2023/01/16 15:37:42;;;;;;;0.57;0.57;;;4.70;99.90;;;;;;5114783;28;20193;-79